Terminal Aerodrome Forecast
Issued by NWS Blacksburg, VA

Current Version | Previous Version | Text Only | Print | Product List | Glossary Off
Versions: 1 2 3 4 5 6 7 8 9 10 11 12 13 14 15 16 17 18 19 20 21 22 23 24 25 26 27 28 29 30 31 32 33 34 35 36

567
FTUS41 KRNK 011135
TAFBLF
TAF
KBLF 011135Z 0112/0212 27010G20KT P6SM BKN026
     FM011800 28012G23KT P6SM BKN035
     FM012200 28009KT P6SM SCT035
     FM020300 27008KT P6SM BKN025=

USA.gov is the U.S. government's official web portal to all federal, state and local government web resources and services.